createdAt,value
2023-02-26T00:02:54.276Z,31.49
2023-02-26T00:06:55.389Z,31.59
2023-02-26T00:10:54.626Z,31.71
2023-02-26T00:14:54.817Z,31.85
2023-02-26T00:18:55.027Z,31.96
2023-02-26T00:22:55.160Z,32.11
2023-02-26T00:26:55.366Z,32.22
2023-02-26T00:30:55.600Z,32.37
2023-02-26T00:34:55.744Z,32.50
2023-02-26T00:38:55.995Z,32.54
2023-02-26T00:42:55.987Z,32.52
2023-02-26T00:46:55.910Z,32.56
2023-02-26T00:50:55.910Z,32.54
2023-02-26T00:54:55.840Z,32.53
2023-02-26T00:58:55.798Z,32.50
2023-02-26T01:02:55.761Z,32.46
2023-02-26T01:06:55.746Z,32.47
2023-02-26T01:10:55.707Z,32.46
2023-02-26T01:14:55.646Z,32.45
2023-02-26T01:18:55.637Z,32.52
2023-02-26T01:22:55.753Z,32.49
2023-02-26T01:26:55.951Z,32.49
2023-02-26T01:30:56.066Z,32.53
2023-02-26T01:34:55.903Z,32.56
2023-02-26T01:38:55.876Z,32.52
2023-02-26T01:42:55.838Z,32.54
2023-02-26T01:46:55.809Z,32.43
2023-02-26T01:50:55.766Z,32.42
2023-02-26T01:54:55.727Z,32.36
2023-02-26T01:58:55.693Z,32.35
2023-02-26T02:02:55.784Z,32.31
2023-02-26T02:06:55.650Z,32.25
2023-02-26T02:10:55.581Z,32.08
2023-02-26T02:14:55.735Z,32.06
2023-02-26T02:18:55.727Z,32.05
2023-02-26T02:22:55.754Z,32.01
2023-02-26T02:26:55.777Z,31.96
2023-02-26T02:30:55.765Z,31.98
2023-02-26T02:34:55.798Z,31.95
2023-02-26T02:38:55.801Z,31.92
2023-02-26T02:42:55.782Z,31.92
2023-02-26T02:46:55.927Z,31.90
2023-02-26T02:50:55.813Z,31.90
2023-02-26T02:54:55.825Z,31.81
2023-02-26T02:58:55.829Z,31.74
2023-02-26T03:02:55.849Z,31.73
2023-02-26T03:06:55.839Z,31.70
2023-02-26T03:10:55.886Z,31.67
2023-02-26T03:14:55.860Z,31.57
2023-02-26T03:18:55.846Z,31.45
2023-02-26T03:22:55.938Z,31.29
2023-02-26T03:26:55.927Z,31.19
2023-02-26T03:30:56.028Z,31.14
2023-02-26T03:34:56.333Z,31.15
2023-02-26T03:38:56.120Z,31.18
2023-02-26T03:42:56.140Z,31.25
2023-02-26T03:46:56.261Z,31.06
2023-02-26T03:50:56.297Z,30.62
2023-02-26T03:54:57.822Z,30.30
2023-02-26T03:58:56.504Z,29.94
2023-02-26T04:02:56.552Z,29.68
2023-02-26T04:06:56.635Z,29.34
2023-02-26T04:10:56.744Z,29.10
2023-02-26T04:14:56.877Z,28.97
2023-02-26T04:18:56.948Z,28.79
2023-02-26T04:22:57.020Z,28.71
2023-02-26T04:26:57.174Z,28.56
2023-02-26T04:30:57.370Z,28.44
2023-02-26T04:34:57.417Z,28.34
2023-02-26T04:38:57.534Z,28.32
2023-02-26T04:42:57.635Z,28.33
2023-02-26T04:46:57.762Z,28.33
2023-02-26T04:50:57.914Z,28.30
2023-02-26T04:54:58.045Z,28.29
2023-02-26T04:58:58.173Z,28.28
2023-02-26T05:02:58.345Z,28.31
2023-02-26T05:06:58.564Z,28.34
2023-02-26T05:10:58.754Z,28.30
2023-02-26T05:14:58.963Z,28.25
2023-02-26T05:18:59.170Z,28.28
2023-02-26T05:22:59.357Z,28.23
2023-02-26T05:26:59.327Z,28.26
2023-02-26T05:30:59.396Z,28.32
2023-02-26T05:34:59.261Z,28.34
2023-02-26T05:38:59.189Z,28.37
2023-02-26T05:42:59.179Z,28.46
2023-02-26T05:46:59.211Z,28.47
2023-02-26T05:50:59.102Z,28.38
2023-02-26T05:54:59.039Z,28.39
2023-02-26T05:58:59.029Z,28.45
2023-02-26T06:02:59.172Z,28.51
2023-02-26T06:06:59.347Z,28.57
2023-02-26T06:10:59.326Z,28.71
2023-02-26T06:14:59.283Z,28.66
2023-02-26T06:18:59.252Z,28.64
2023-02-26T06:22:59.203Z,28.72
2023-02-26T06:26:59.156Z,28.85
2023-02-26T06:30:59.194Z,28.92
2023-02-26T06:34:59.085Z,29.05
2023-02-26T06:38:59.072Z,29.12
2023-02-26T06:42:59.153Z,29.02
2023-02-26T06:46:59.155Z,28.88
2023-02-26T06:50:59.327Z,28.77
2023-02-26T06:54:59.325Z,28.63
2023-02-26T06:58:59.279Z,28.37
2023-02-26T07:02:59.235Z,28.19
2023-02-26T07:06:59.163Z,28.14
2023-02-26T07:10:59.147Z,28.03
2023-02-26T07:14:59.147Z,27.88
2023-02-26T07:18:59.064Z,27.59
2023-02-26T07:22:59.049Z,27.49
2023-02-26T07:26:58.992Z,27.27
2023-02-26T07:30:59.283Z,27.11
2023-02-26T07:34:59.370Z,26.96
2023-02-26T07:38:59.600Z,26.93
2023-02-26T07:42:59.524Z,26.75
2023-02-26T07:46:59.492Z,26.59
2023-02-26T07:50:59.466Z,26.52
2023-02-26T07:54:59.409Z,26.42
2023-02-26T07:58:59.404Z,26.17
2023-02-26T08:02:59.340Z,26.06
2023-02-26T08:06:59.321Z,25.94
2023-02-26T08:10:59.274Z,25.94
2023-02-26T08:14:59.221Z,25.81
2023-02-26T08:18:59.194Z,25.75
2023-02-26T08:22:59.156Z,25.73
2023-02-26T08:26:59.256Z,25.64
2023-02-26T08:30:59.372Z,25.59
2023-02-26T08:34:59.381Z,25.46
2023-02-26T08:38:59.424Z,25.40
2023-02-26T08:43:00.269Z,25.30
2023-02-26T08:46:59.486Z,25.20
2023-02-26T08:50:59.443Z,25.03
2023-02-26T08:54:59.431Z,24.91
2023-02-26T08:58:59.361Z,24.82
2023-02-26T09:02:59.376Z,24.76
2023-02-26T09:06:59.310Z,24.85
2023-02-26T09:10:59.281Z,24.86
2023-02-26T09:14:59.224Z,24.92
2023-02-26T09:18:59.214Z,24.96
2023-02-26T09:22:59.152Z,24.92
2023-02-26T09:26:59.140Z,24.89
2023-02-26T09:30:59.155Z,24.89
2023-02-26T09:34:59.031Z,24.77
2023-02-26T09:38:59.009Z,24.60
2023-02-26T09:42:58.968Z,24.56
2023-02-26T09:46:58.923Z,24.38
2023-02-26T09:50:58.888Z,24.21
2023-02-26T09:54:58.841Z,24.20
2023-02-26T09:58:58.810Z,24.01
2023-02-26T10:02:58.764Z,23.82
2023-02-26T10:06:58.734Z,23.47
2023-02-26T10:10:58.713Z,23.01
2023-02-26T10:14:58.694Z,22.93
2023-02-26T10:18:58.661Z,22.90
2023-02-26T10:22:58.598Z,22.87
2023-02-26T10:26:58.553Z,22.70
2023-02-26T10:30:58.574Z,22.49
2023-02-26T10:34:58.485Z,22.35
2023-02-26T10:38:58.415Z,22.14
2023-02-26T10:42:58.422Z,22.06
2023-02-26T10:46:58.361Z,21.91
2023-02-26T10:50:58.346Z,22.07
2023-02-26T10:54:58.327Z,22.10
2023-02-26T10:58:58.252Z,22.10
2023-02-26T11:02:58.249Z,22.12
2023-02-26T11:06:58.192Z,22.14
2023-02-26T11:10:58.138Z,22.21
2023-02-26T11:14:58.123Z,22.21
2023-02-26T11:18:58.110Z,22.08
2023-02-26T11:22:58.060Z,22.13
2023-02-26T11:26:58.015Z,22.12
2023-02-26T11:30:58.115Z,22.01
2023-02-26T11:34:57.934Z,22.06
2023-02-26T11:38:57.960Z,21.82
2023-02-26T11:42:57.855Z,21.78
2023-02-26T11:46:57.838Z,21.62
2023-02-26T11:50:57.825Z,21.55
2023-02-26T11:54:57.785Z,21.38
2023-02-26T11:58:57.727Z,21.14
2023-02-26T12:02:57.756Z,21.04
2023-02-26T12:06:57.719Z,20.97
2023-02-26T12:10:57.628Z,20.91
2023-02-26T12:14:57.552Z,20.88
2023-02-26T12:18:57.549Z,20.83
2023-02-26T12:22:57.479Z,20.64
2023-02-26T12:26:57.647Z,20.42
2023-02-26T12:30:57.913Z,20.40
2023-02-26T12:34:57.981Z,20.22
2023-02-26T12:38:58.152Z,20.04
2023-02-26T12:42:58.271Z,19.91
2023-02-26T12:46:58.409Z,19.98
2023-02-26T12:50:58.425Z,20.09
2023-02-26T12:54:58.452Z,20.07
2023-02-26T12:58:58.470Z,20.06
2023-02-26T13:02:58.533Z,20.07
2023-02-26T13:06:58.733Z,19.97
2023-02-26T13:10:58.893Z,19.89
2023-02-26T13:14:59.057Z,19.74
2023-02-26T13:18:59.126Z,19.68
2023-02-26T13:22:59.233Z,19.52
2023-02-26T13:26:59.328Z,19.22
2023-02-26T13:30:59.360Z,18.99
2023-02-26T13:34:59.448Z,18.91
2023-02-26T13:38:59.597Z,18.78
2023-02-26T13:42:59.631Z,18.65
2023-02-26T13:46:59.713Z,18.52
2023-02-26T13:50:59.754Z,18.61
2023-02-26T13:54:59.960Z,18.66
2023-02-26T13:58:59.892Z,18.73
2023-02-26T14:02:59.847Z,18.87
2023-02-26T14:06:59.793Z,18.95
2023-02-26T14:10:59.812Z,19.01
2023-02-26T14:14:59.773Z,19.12
2023-02-26T14:18:59.685Z,19.20
2023-02-26T14:22:59.658Z,19.19
2023-02-26T14:26:59.654Z,19.24
2023-02-26T14:30:59.635Z,19.33
2023-02-26T14:34:59.548Z,19.33
2023-02-26T14:38:59.528Z,19.43
2023-02-26T14:42:59.535Z,19.37
2023-02-26T14:46:59.464Z,19.30
2023-02-26T14:50:59.409Z,19.32
2023-02-26T14:54:59.365Z,19.31
2023-02-26T14:58:59.368Z,19.30
2023-02-26T15:02:59.591Z,19.26
2023-02-26T15:06:59.766Z,19.27
2023-02-26T15:10:59.948Z,19.39
2023-02-26T15:15:00.198Z,19.57
2023-02-26T15:19:00.379Z,19.83
2023-02-26T15:23:00.615Z,20.07
2023-02-26T15:27:00.570Z,20.27
2023-02-26T15:31:00.733Z,20.46
2023-02-26T15:35:00.513Z,20.63
2023-02-26T15:39:00.477Z,20.80
2023-02-26T15:43:00.432Z,20.87
2023-02-26T15:47:00.379Z,21.07
2023-02-26T15:51:00.343Z,21.20
2023-02-26T15:55:00.344Z,21.32
2023-02-26T15:59:00.290Z,21.45
2023-02-26T16:03:00.241Z,21.55
2023-02-26T16:07:00.461Z,21.64
2023-02-26T16:11:00.440Z,21.71
2023-02-26T16:15:00.411Z,21.86
2023-02-26T16:19:00.339Z,21.98
2023-02-26T16:23:01.048Z,21.99
2023-02-26T16:27:00.309Z,22.05
2023-02-26T16:31:00.324Z,22.00
2023-02-26T16:35:00.216Z,22.01
2023-02-26T16:39:00.168Z,21.95
2023-02-26T16:43:00.160Z,21.89
2023-02-26T16:47:00.097Z,21.94
2023-02-26T16:51:00.053Z,21.98
2023-02-26T16:55:00.032Z,21.99
2023-02-26T16:59:00.011Z,22.02
2023-02-26T17:02:59.972Z,21.96
2023-02-26T17:06:59.897Z,22.05
2023-02-26T17:10:59.888Z,22.11
2023-02-26T17:14:59.862Z,22.14
2023-02-26T17:18:59.798Z,22.24
2023-02-26T17:22:59.760Z,22.38
2023-02-26T17:26:59.728Z,22.47
2023-02-26T17:30:59.713Z,22.46
2023-02-26T17:34:59.681Z,22.63
2023-02-26T17:38:59.793Z,22.65
2023-02-26T17:42:59.902Z,22.63
2023-02-26T17:46:59.984Z,22.61
2023-02-26T17:51:00.129Z,22.68
2023-02-26T17:55:00.270Z,22.70
2023-02-26T17:59:00.465Z,22.59
2023-02-26T18:03:00.549Z,22.68
2023-02-26T18:07:00.690Z,22.75
2023-02-26T18:11:00.863Z,22.84
2023-02-26T18:15:01.004Z,22.95
2023-02-26T18:19:01.221Z,23.03
2023-02-26T18:23:01.408Z,23.19
2023-02-26T18:27:01.341Z,23.30
2023-02-26T18:31:01.361Z,23.38
2023-02-26T18:35:01.307Z,23.45
2023-02-26T18:39:01.252Z,23.59
2023-02-26T18:43:01.231Z,23.63
2023-02-26T18:47:01.177Z,23.66
2023-02-26T18:51:01.162Z,23.74
2023-02-26T18:55:01.091Z,23.72
2023-02-26T18:59:01.087Z,23.69
2023-02-26T19:03:01.050Z,23.74
2023-02-26T19:07:00.992Z,23.73
2023-02-26T19:11:00.966Z,23.76
2023-02-26T19:15:00.953Z,23.80
2023-02-26T19:19:00.865Z,23.90
2023-02-26T19:23:00.883Z,23.94
2023-02-26T19:27:00.813Z,24.00
2023-02-26T19:31:00.964Z,24.08
2023-02-26T19:35:00.767Z,24.12
2023-02-26T19:39:00.683Z,24.23
2023-02-26T19:43:00.669Z,24.25
2023-02-26T19:47:00.721Z,24.30
2023-02-26T19:51:00.780Z,24.34
2023-02-26T19:55:00.823Z,24.42
2023-02-26T19:59:00.917Z,24.41
2023-02-26T20:03:00.983Z,24.43
2023-02-26T20:07:00.923Z,24.43
2023-02-26T20:11:00.910Z,24.37
2023-02-26T20:15:00.960Z,24.36
2023-02-26T20:19:00.992Z,24.38
2023-02-26T20:23:00.986Z,24.43
2023-02-26T20:27:01.653Z,24.37
2023-02-26T20:31:01.071Z,24.42
2023-02-26T20:35:00.981Z,24.42
2023-02-26T20:39:00.983Z,24.43
2023-02-26T20:43:01.008Z,24.48
2023-02-26T20:47:01.024Z,24.46
2023-02-26T20:51:01.027Z,24.50
2023-02-26T20:55:01.028Z,24.48
2023-02-26T20:59:01.065Z,24.37
2023-02-26T21:03:01.116Z,24.35
2023-02-26T21:07:01.120Z,24.24
2023-02-26T21:11:01.155Z,24.08
2023-02-26T21:15:01.189Z,24.01
2023-02-26T21:19:01.216Z,23.90
2023-02-26T21:23:01.222Z,23.89
2023-02-26T21:27:01.213Z,23.74
2023-02-26T21:31:01.260Z,23.66
2023-02-26T21:35:01.320Z,23.48
2023-02-26T21:39:01.342Z,23.47
2023-02-26T21:43:01.365Z,23.48
2023-02-26T21:47:01.387Z,23.41
2023-02-26T21:51:01.482Z,23.35
2023-02-26T21:55:01.545Z,23.30
2023-02-26T21:59:01.605Z,23.27
2023-02-26T22:03:01.624Z,23.25
2023-02-26T22:07:01.686Z,23.28
2023-02-26T22:11:01.746Z,23.29
2023-02-26T22:15:01.773Z,23.30
2023-02-26T22:19:01.879Z,23.24
2023-02-26T22:23:01.963Z,23.29
2023-02-26T22:27:02.058Z,23.34
2023-02-26T22:31:02.212Z,23.33
2023-02-26T22:35:02.266Z,23.34
2023-02-26T22:39:02.286Z,23.27
2023-02-26T22:43:02.417Z,23.37
2023-02-26T22:47:02.453Z,23.41
2023-02-26T22:51:02.542Z,23.37
2023-02-26T22:55:02.637Z,23.41
2023-02-26T22:59:02.758Z,23.51
2023-02-26T23:03:02.874Z,23.47
2023-02-26T23:07:03.002Z,23.54
2023-02-26T23:11:03.200Z,23.53
2023-02-26T23:15:03.233Z,23.56
2023-02-26T23:19:03.382Z,23.60
2023-02-26T23:23:03.568Z,23.64
2023-02-26T23:27:03.715Z,23.71
2023-02-26T23:31:03.908Z,23.79
2023-02-26T23:35:04.053Z,23.83
2023-02-26T23:39:04.217Z,23.86
2023-02-26T23:43:04.354Z,23.87
2023-02-26T23:47:04.587Z,23.91
2023-02-26T23:51:04.745Z,23.94
2023-02-26T23:55:04.906Z,23.90
2023-02-26T23:59:05.141Z,24.02
